createdAt,value
2019-06-26T00:02:18.271Z,60.80
2019-06-26T00:04:48.261Z,60.80
2019-06-26T00:07:18.204Z,60.80
2019-06-26T00:09:47.999Z,60.70
2019-06-26T00:12:17.907Z,60.60
2019-06-26T00:14:47.898Z,60.60
2019-06-26T00:17:17.674Z,60.70
2019-06-26T00:19:47.542Z,60.70
2019-06-26T00:22:17.422Z,60.70
2019-06-26T00:24:47.342Z,60.60
2019-06-26T00:27:17.282Z,61.40
2019-06-26T00:29:48.241Z,60.70
2019-06-26T00:32:18.050Z,60.40
2019-06-26T00:34:48.006Z,60.50
2019-06-26T00:37:18.099Z,60.60
2019-06-26T00:39:47.889Z,60.60
2019-06-26T00:42:17.812Z,60.50
2019-06-26T00:44:47.671Z,60.40
2019-06-26T00:47:17.625Z,60.60
2019-06-26T00:49:47.484Z,60.50
2019-06-26T00:52:17.432Z,60.60
2019-06-26T00:54:47.378Z,60.50
2019-06-26T00:57:17.168Z,60.40
2019-06-26T00:59:47.125Z,60.30
2019-06-26T01:02:17.054Z,60.50
2019-06-26T01:04:48.694Z,60.40
2019-06-26T01:07:18.634Z,60.30
2019-06-26T01:09:48.424Z,60.30
2019-06-26T01:12:18.466Z,60.30
2019-06-26T01:14:48.251Z,60.30
2019-06-26T01:17:18.205Z,60.30
2019-06-26T01:19:48.054Z,60.30
2019-06-26T01:22:18.039Z,60.90
2019-06-26T01:24:47.961Z,60.20
2019-06-26T01:27:17.878Z,60.20
2019-06-26T01:29:47.837Z,60.30
2019-06-26T01:32:17.855Z,60.30
2019-06-26T01:34:47.787Z,60.30
2019-06-26T01:37:17.738Z,60.30
2019-06-26T01:39:47.608Z,60.20
2019-06-26T01:42:17.511Z,60.30
2019-06-26T01:44:47.493Z,60.20
2019-06-26T01:47:17.343Z,60.20
2019-06-26T01:49:47.110Z,60.30
2019-06-26T01:52:17.011Z,60.20
2019-06-26T01:54:46.870Z,60.30
2019-06-26T01:57:16.769Z,60.20
2019-06-26T01:59:46.550Z,60.20
2019-06-26T02:02:16.391Z,60.20
2019-06-26T02:04:46.330Z,60.30
2019-06-26T02:07:16.098Z,60.20
2019-06-26T02:09:45.914Z,60.10
2019-06-26T02:12:15.807Z,60.30
2019-06-26T02:14:45.638Z,61.20
2019-06-26T02:17:15.426Z,60.20
2019-06-26T02:19:45.313Z,60.20
2019-06-26T02:22:15.231Z,60.20
2019-06-26T02:24:45.091Z,60.10
2019-06-26T02:27:15.008Z,60.20
2019-06-26T02:29:44.934Z,60.20
2019-06-26T02:32:15.272Z,60.30
2019-06-26T02:34:45.204Z,60.10
2019-06-26T02:37:15.169Z,60.20
2019-06-26T02:39:45.103Z,60.20
2019-06-26T02:42:15.050Z,60.20
2019-06-26T02:44:52.963Z,60.20
2019-06-26T02:47:20.015Z,60.20
2019-06-26T02:49:48.048Z,60.30
2019-06-26T02:52:17.915Z,60.20
2019-06-26T02:54:47.902Z,60.20
2019-06-26T02:57:17.861Z,60.20
2019-06-26T02:59:47.728Z,60.40
2019-06-26T03:02:17.721Z,60.20
2019-06-26T03:04:47.671Z,60.30
2019-06-26T03:07:17.526Z,60.30
2019-06-26T03:09:47.392Z,60.20
2019-06-26T03:12:17.389Z,60.40
2019-06-26T03:14:47.235Z,60.30
2019-06-26T03:17:17.001Z,60.40
2019-06-26T03:19:46.998Z,60.30
2019-06-26T03:22:17.099Z,60.30
2019-06-26T03:24:46.997Z,60.40
2019-06-26T03:27:16.928Z,60.30
2019-06-26T03:29:46.871Z,60.40
2019-06-26T03:32:16.918Z,60.30
2019-06-26T03:34:46.786Z,60.30
2019-06-26T03:37:16.689Z,60.40
2019-06-26T03:39:46.544Z,60.40
2019-06-26T03:42:16.414Z,60.30
2019-06-26T03:44:46.273Z,60.40
2019-06-26T03:47:16.155Z,60.30
2019-06-26T03:49:45.972Z,60.40
2019-06-26T03:52:15.822Z,61.40
2019-06-26T03:54:45.706Z,60.40
2019-06-26T03:57:15.578Z,60.30
2019-06-26T03:59:45.382Z,60.50
2019-06-26T04:02:15.323Z,60.40
2019-06-26T04:04:45.200Z,60.40
2019-06-26T04:07:15.183Z,60.40
2019-06-26T04:09:45.026Z,60.50
2019-06-26T04:12:15.009Z,61.30
2019-06-26T04:14:44.808Z,60.40
2019-06-26T04:17:14.812Z,60.40
2019-06-26T04:19:44.693Z,60.50
2019-06-26T04:22:14.550Z,60.40
2019-06-26T04:24:44.559Z,60.40
2019-06-26T04:27:14.498Z,60.40
2019-06-26T04:29:44.421Z,60.40
2019-06-26T04:32:14.294Z,60.40
2019-06-26T04:34:44.322Z,60.40
2019-06-26T04:37:14.187Z,60.40
2019-06-26T04:39:44.081Z,60.50
2019-06-26T04:42:13.978Z,60.30
2019-06-26T04:44:43.929Z,60.40
2019-06-26T04:47:13.998Z,60.40
2019-06-26T04:49:43.871Z,61.40
2019-06-26T04:52:13.860Z,60.50
2019-06-26T04:54:43.792Z,60.40
2019-06-26T04:57:13.670Z,60.40
2019-06-26T04:59:43.705Z,60.30
2019-06-26T05:02:14.633Z,60.40
2019-06-26T05:04:44.614Z,61.20
2019-06-26T05:07:14.551Z,60.40
2019-06-26T05:09:44.457Z,60.40
2019-06-26T05:12:14.341Z,60.40
2019-06-26T05:14:44.194Z,60.30
2019-06-26T05:17:14.308Z,60.40
2019-06-26T05:19:44.347Z,60.30
2019-06-26T05:22:14.214Z,60.30
2019-06-26T05:24:46.433Z,60.30
2019-06-26T05:27:15.696Z,60.30
2019-06-26T05:29:45.662Z,60.50
2019-06-26T05:32:15.657Z,60.40
2019-06-26T05:34:45.527Z,60.50
2019-06-26T05:37:15.389Z,60.30
2019-06-26T05:39:45.331Z,60.30
2019-06-26T05:42:15.364Z,60.40
2019-06-26T05:44:45.307Z,60.40
2019-06-26T05:47:15.094Z,60.20
2019-06-26T05:49:44.984Z,61.20
2019-06-26T05:52:16.655Z,60.30
2019-06-26T05:54:46.594Z,60.40
2019-06-26T05:57:16.547Z,60.40
2019-06-26T05:59:46.602Z,60.40
2019-06-26T06:02:16.525Z,60.30
2019-06-26T06:04:46.475Z,60.40
2019-06-26T06:07:16.410Z,60.40
2019-06-26T06:09:46.462Z,60.50
2019-06-26T06:12:16.419Z,60.40
2019-06-26T06:14:46.346Z,60.40
2019-06-26T06:17:16.217Z,60.50
2019-06-26T06:19:46.208Z,60.60
2019-06-26T06:22:16.201Z,60.50
2019-06-26T06:24:46.255Z,60.50
2019-06-26T06:27:16.463Z,60.50
2019-06-26T06:29:46.356Z,60.40
2019-06-26T06:32:16.278Z,60.50
2019-06-26T06:34:46.276Z,60.40
2019-06-26T06:37:16.231Z,60.60
2019-06-26T06:39:46.115Z,60.80
2019-06-26T06:42:15.960Z,61.00
2019-06-26T06:44:45.906Z,61.30
2019-06-26T06:47:15.894Z,61.50
2019-06-26T06:49:45.886Z,61.90
2019-06-26T06:52:16.798Z,62.60
2019-06-26T06:54:47.766Z,63.10
2019-06-26T06:57:17.715Z,63.60
2019-06-26T06:59:47.812Z,63.70
2019-06-26T07:02:17.551Z,63.80
2019-06-26T07:04:47.395Z,63.90
2019-06-26T07:07:17.398Z,63.90
2019-06-26T07:09:47.253Z,64.20
2019-06-26T07:12:20.603Z,64.60
2019-06-26T07:14:48.726Z,64.70
2019-06-26T07:17:20.993Z,65.00
2019-06-26T07:19:50.275Z,65.10
2019-06-26T07:22:20.156Z,65.60
2019-06-26T07:24:50.013Z,65.80
2019-06-26T07:27:20.031Z,66.00
2019-06-26T07:29:49.919Z,66.10
2019-06-26T07:32:19.783Z,66.30
2019-06-26T07:34:49.681Z,66.70
2019-06-26T07:37:19.538Z,66.60
2019-06-26T07:39:49.344Z,66.80
2019-06-26T07:42:19.251Z,66.80
2019-06-26T07:44:49.033Z,67.00
2019-06-26T07:47:25.000Z,67.00
2019-06-26T07:49:51.049Z,67.00
2019-06-26T07:52:20.947Z,67.00
2019-06-26T07:54:50.798Z,67.10
2019-06-26T07:57:20.667Z,67.00
2019-06-26T07:59:50.526Z,67.20
2019-06-26T08:02:20.466Z,67.20
2019-06-26T08:04:50.330Z,67.10
2019-06-26T08:07:20.169Z,67.10
2019-06-26T08:09:50.046Z,67.00
2019-06-26T08:12:19.965Z,67.10
2019-06-26T08:14:50.045Z,66.90
2019-06-26T08:17:19.922Z,66.90
2019-06-26T08:19:49.864Z,67.00
2019-06-26T08:22:19.817Z,67.00
2019-06-26T08:24:49.811Z,66.80
2019-06-26T08:27:19.780Z,66.80
2019-06-26T08:29:49.639Z,67.60
2019-06-26T08:32:19.670Z,66.60
2019-06-26T08:34:49.514Z,66.70
2019-06-26T08:37:19.381Z,66.50
2019-06-26T08:39:49.279Z,66.40
2019-06-26T08:42:19.129Z,66.20
2019-06-26T08:44:50.146Z,66.30
2019-06-26T08:47:19.990Z,65.90
2019-06-26T08:49:49.786Z,66.20
2019-06-26T08:52:19.664Z,66.00
2019-06-26T08:54:49.589Z,66.20
2019-06-26T08:57:19.731Z,66.70
2019-06-26T08:59:49.626Z,67.00
2019-06-26T09:02:19.519Z,67.00
2019-06-26T09:04:49.381Z,66.90
2019-06-26T09:07:19.431Z,68.10
2019-06-26T09:09:49.426Z,67.20
2019-06-26T09:12:19.361Z,67.30
2019-06-26T09:14:49.259Z,67.20
2019-06-26T09:17:19.487Z,67.20
2019-06-26T09:19:49.427Z,67.30
2019-06-26T09:22:19.207Z,67.30
2019-06-26T09:24:49.072Z,67.20
2019-06-26T09:27:19.046Z,67.20
2019-06-26T09:29:49.326Z,67.10
2019-06-26T09:32:19.266Z,66.90
2019-06-26T09:34:49.373Z,66.90
2019-06-26T09:37:19.233Z,66.80
2019-06-26T09:39:49.082Z,66.80
2019-06-26T09:42:19.893Z,66.70
2019-06-26T09:44:49.945Z,66.90
2019-06-26T09:47:19.879Z,66.50
2019-06-26T09:49:49.809Z,66.00
2019-06-26T09:52:19.706Z,65.50
2019-06-26T09:54:49.606Z,65.30
2019-06-26T09:57:19.506Z,65.10
2019-06-26T09:59:49.427Z,65.10
2019-06-26T10:02:19.327Z,65.10
2019-06-26T10:04:49.303Z,65.20
2019-06-26T10:07:19.303Z,65.20
2019-06-26T10:09:49.444Z,65.20
2019-06-26T10:12:19.705Z,65.20
2019-06-26T10:14:49.673Z,65.30
2019-06-26T10:17:19.654Z,65.40
2019-06-26T10:19:49.574Z,65.40
2019-06-26T10:22:19.534Z,65.30
2019-06-26T10:24:49.442Z,65.30
2019-06-26T10:27:19.370Z,65.20
2019-06-26T10:29:49.383Z,65.20
2019-06-26T10:32:19.342Z,65.20
2019-06-26T10:34:49.313Z,66.30
2019-06-26T10:37:19.343Z,65.50
2019-06-26T10:39:49.294Z,65.40
2019-06-26T10:42:19.321Z,65.40
2019-06-26T10:44:49.258Z,65.40
2019-06-26T10:47:19.263Z,65.40
2019-06-26T10:49:49.244Z,65.50
2019-06-26T10:52:19.179Z,65.50
2019-06-26T10:54:49.220Z,65.60
2019-06-26T10:57:19.118Z,65.90
2019-06-26T10:59:49.183Z,66.20
2019-06-26T11:02:19.140Z,66.30
2019-06-26T11:04:49.101Z,66.50
2019-06-26T11:07:19.063Z,66.70
2019-06-26T11:09:48.948Z,67.20
2019-06-26T11:12:18.867Z,67.40
2019-06-26T11:14:48.786Z,67.90
2019-06-26T11:17:18.669Z,67.00
2019-06-26T11:19:49.674Z,66.70
2019-06-26T11:22:19.689Z,65.80
2019-06-26T11:24:49.646Z,66.10
2019-06-26T11:27:19.588Z,65.80
2019-06-26T11:29:49.496Z,65.60
2019-06-26T11:32:19.637Z,65.60
2019-06-26T11:34:49.584Z,65.60
2019-06-26T11:37:22.835Z,65.50
2019-06-26T11:39:51.111Z,66.00
2019-06-26T11:42:21.047Z,66.00
2019-06-26T11:44:51.050Z,66.20
2019-06-26T11:47:21.025Z,66.20
2019-06-26T11:49:59.940Z,66.10
2019-06-26T11:52:22.626Z,66.30
2019-06-26T11:55:02.209Z,66.30
2019-06-26T11:57:24.244Z,66.20
2019-06-26T11:59:54.222Z,66.40
2019-06-26T12:02:24.183Z,66.40
2019-06-26T12:04:54.117Z,66.00
2019-06-26T12:07:24.304Z,66.20
2019-06-26T12:09:55.419Z,66.20
2019-06-26T12:12:25.414Z,66.20
2019-06-26T12:14:55.517Z,66.40
2019-06-26T12:17:25.550Z,66.40
2019-06-26T12:19:55.633Z,66.40
2019-06-26T12:22:25.633Z,66.30
2019-06-26T12:24:55.581Z,66.00
2019-06-26T12:27:25.679Z,66.60
2019-06-26T12:29:55.573Z,66.50
2019-06-26T12:32:25.425Z,66.50
2019-06-26T12:34:55.386Z,66.20
2019-06-26T12:37:37.100Z,66.30
2019-06-26T12:39:57.064Z,66.20
2019-06-26T12:42:27.066Z,65.90
2019-06-26T12:44:57.098Z,66.20
2019-06-26T12:47:27.126Z,66.30
2019-06-26T12:49:57.094Z,66.20
2019-06-26T12:52:27.206Z,66.20
2019-06-26T12:54:57.061Z,66.00
2019-06-26T12:57:27.179Z,65.90
2019-06-26T12:59:58.098Z,66.00
2019-06-26T13:02:28.241Z,65.70
2019-06-26T13:04:58.201Z,65.80
2019-06-26T13:07:28.188Z,65.60
2019-06-26T13:09:58.245Z,65.20
2019-06-26T13:12:28.263Z,65.20
2019-06-26T13:14:58.121Z,65.00
2019-06-26T13:17:28.061Z,65.10
2019-06-26T13:19:58.000Z,64.80
2019-06-26T13:22:27.974Z,64.60
2019-06-26T13:24:57.944Z,64.70
2019-06-26T13:27:27.897Z,64.50
2019-06-26T13:29:57.751Z,64.30
2019-06-26T13:32:28.820Z,64.20
2019-06-26T13:34:58.734Z,63.80
2019-06-26T13:37:28.871Z,63.80
2019-06-26T13:39:58.807Z,64.40
2019-06-26T13:42:28.847Z,64.20
2019-06-26T13:44:59.608Z,64.40
2019-06-26T13:47:29.669Z,64.60
2019-06-26T13:49:59.593Z,64.70
2019-06-26T13:52:29.538Z,64.90
2019-06-26T13:54:59.494Z,65.10
2019-06-26T13:57:29.568Z,65.20
2019-06-26T13:59:59.490Z,65.40
2019-06-26T14:02:29.424Z,65.30
2019-06-26T14:04:59.502Z,65.20
2019-06-26T14:07:29.552Z,65.50
2019-06-26T14:09:59.415Z,65.60
2019-06-26T14:12:29.341Z,65.80
2019-06-26T14:14:59.252Z,65.90
2019-06-26T14:17:29.178Z,66.10
2019-06-26T14:19:59.131Z,66.60
2019-06-26T14:22:29.063Z,66.40
2019-06-26T14:24:58.931Z,66.50
2019-06-26T14:27:28.978Z,66.80
2019-06-26T14:29:58.986Z,66.90
2019-06-26T14:32:29.033Z,66.90
2019-06-26T14:34:58.826Z,67.00
2019-06-26T14:37:28.705Z,67.30
2019-06-26T14:39:58.652Z,67.00
2019-06-26T14:42:28.804Z,67.00
2019-06-26T14:44:58.851Z,67.00
2019-06-26T14:47:28.796Z,67.30
2019-06-26T14:49:58.674Z,67.30
2019-06-26T14:52:28.562Z,67.80
2019-06-26T14:54:58.518Z,68.50
2019-06-26T14:57:28.365Z,68.20
2019-06-26T14:59:58.426Z,68.00
2019-06-26T15:02:31.675Z,68.00
2019-06-26T15:05:00.099Z,68.20
2019-06-26T15:07:30.010Z,68.20
2019-06-26T15:09:59.972Z,68.40
2019-06-26T15:12:30.055Z,68.50
2019-06-26T15:15:00.044Z,68.40
2019-06-26T15:17:30.151Z,68.40
2019-06-26T15:20:00.056Z,68.50
2019-06-26T15:22:30.097Z,68.80
2019-06-26T15:25:00.175Z,68.70
2019-06-26T15:27:30.250Z,68.60
2019-06-26T15:30:00.277Z,68.80
2019-06-26T15:32:30.429Z,68.90
2019-06-26T15:35:00.961Z,68.80
2019-06-26T15:37:30.850Z,68.90
2019-06-26T15:40:00.933Z,69.10
2019-06-26T15:42:30.911Z,68.90
2019-06-26T15:45:00.923Z,68.90
2019-06-26T15:47:31.105Z,68.90
2019-06-26T15:50:01.035Z,68.70
2019-06-26T15:52:31.628Z,68.60
2019-06-26T15:55:01.837Z,68.70
2019-06-26T15:57:32.314Z,68.90
2019-06-26T16:00:02.558Z,69.80
2019-06-26T16:02:33.151Z,68.50
2019-06-26T16:05:03.555Z,68.50
2019-06-26T16:07:34.015Z,68.60
2019-06-26T16:10:04.086Z,68.80
2019-06-26T16:12:34.185Z,68.70
2019-06-26T16:15:04.713Z,68.40
2019-06-26T16:17:49.785Z,68.60
2019-06-26T16:20:20.042Z,68.30
2019-06-26T16:22:50.096Z,68.20
2019-06-26T16:25:20.089Z,68.30
2019-06-26T16:28:04.272Z,68.10
2019-06-26T16:30:21.799Z,67.90
2019-06-26T16:32:56.856Z,68.00
2019-06-26T16:35:35.074Z,67.80
2019-06-26T16:38:05.038Z,67.80
2019-06-26T16:40:34.992Z,67.60
2019-06-26T16:43:04.857Z,67.90
2019-06-26T16:45:34.862Z,67.80
2019-06-26T16:48:04.877Z,67.80
2019-06-26T16:50:34.767Z,67.60
2019-06-26T16:53:04.973Z,67.80
2019-06-26T16:55:35.086Z,67.60
2019-06-26T16:58:05.377Z,67.70
2019-06-26T17:00:35.470Z,67.40
2019-06-26T17:03:05.430Z,67.80
2019-06-26T17:05:35.497Z,67.60
2019-06-26T17:08:05.568Z,67.50
2019-06-26T17:10:35.770Z,67.50
2019-06-26T17:13:05.647Z,67.40
2019-06-26T17:15:35.576Z,67.90
2019-06-26T17:18:05.519Z,67.60
2019-06-26T17:20:35.470Z,67.40
2019-06-26T17:23:06.631Z,67.00
2019-06-26T17:25:36.763Z,66.90
2019-06-26T17:28:06.790Z,66.70
2019-06-26T17:30:37.291Z,66.60
2019-06-26T17:33:08.239Z,66.50
2019-06-26T17:35:38.284Z,66.40
2019-06-26T17:38:08.225Z,66.60
2019-06-26T17:40:38.272Z,66.60
2019-06-26T17:43:12.794Z,66.60
2019-06-26T17:45:40.583Z,66.40
2019-06-26T17:48:10.586Z,66.40
2019-06-26T17:50:40.525Z,66.50
2019-06-26T17:53:21.130Z,66.40
2019-06-26T17:55:42.216Z,66.70
2019-06-26T17:58:12.113Z,66.50
2019-06-26T18:00:42.095Z,66.60
2019-06-26T18:03:12.014Z,66.60
2019-06-26T18:05:42.727Z,66.60
2019-06-26T18:08:12.824Z,66.60
2019-06-26T18:10:42.909Z,66.60
2019-06-26T18:13:13.013Z,66.80
2019-06-26T18:15:42.973Z,66.70
2019-06-26T18:18:12.882Z,66.70
2019-06-26T18:20:42.930Z,66.80
2019-06-26T18:23:12.811Z,68.80
2019-06-26T18:25:43.314Z,67.20
2019-06-26T18:28:13.189Z,67.10
2019-06-26T18:30:43.191Z,67.60
2019-06-26T18:33:13.087Z,67.60
2019-06-26T18:35:43.198Z,67.80
2019-06-26T18:38:13.197Z,68.10
2019-06-26T18:40:44.631Z,68.00
2019-06-26T18:43:15.183Z,68.20
2019-06-26T18:45:46.322Z,68.50
2019-06-26T18:48:16.539Z,68.60
2019-06-26T18:50:46.474Z,68.80
2019-06-26T18:53:16.506Z,68.80
2019-06-26T18:55:47.154Z,68.70
2019-06-26T18:58:17.165Z,69.20
2019-06-26T19:00:47.228Z,69.20
2019-06-26T19:03:17.195Z,69.90
2019-06-26T19:05:48.238Z,70.30
2019-06-26T19:08:18.190Z,71.40
2019-06-26T19:10:48.179Z,71.20
2019-06-26T19:13:20.453Z,71.40
2019-06-26T19:15:50.790Z,72.40
2019-06-26T19:18:20.807Z,72.40
2019-06-26T19:20:51.035Z,72.50
2019-06-26T19:23:20.986Z,72.30
2019-06-26T19:25:50.899Z,72.80
2019-06-26T19:28:23.094Z,72.80
2019-06-26T19:30:52.706Z,73.40
2019-06-26T19:33:22.612Z,72.80
2019-06-26T19:35:52.746Z,73.10
2019-06-26T19:38:22.688Z,73.20
2019-06-26T19:40:53.600Z,74.20
2019-06-26T19:43:23.596Z,73.30
2019-06-26T19:45:53.771Z,73.70
2019-06-26T19:48:23.982Z,73.40
2019-06-26T19:50:54.091Z,73.60
2019-06-26T19:53:24.175Z,73.50
2019-06-26T19:55:54.246Z,72.70
2019-06-26T19:58:24.279Z,72.60
2019-06-26T20:00:54.098Z,72.40
2019-06-26T20:03:24.098Z,72.70
2019-06-26T20:05:54.070Z,72.60
2019-06-26T20:08:24.031Z,72.00
2019-06-26T20:10:53.911Z,72.00
2019-06-26T20:13:23.777Z,72.40
2019-06-26T20:15:53.829Z,73.60
2019-06-26T20:18:23.924Z,73.80
2019-06-26T20:20:54.318Z,73.60
2019-06-26T20:23:24.400Z,73.40
2019-06-26T20:25:54.343Z,73.20
2019-06-26T20:28:24.205Z,73.30
2019-06-26T20:30:54.309Z,73.10
2019-06-26T20:33:24.166Z,72.90
2019-06-26T20:35:54.119Z,72.80
2019-06-26T20:38:24.050Z,72.70
2019-06-26T20:40:54.050Z,73.60
2019-06-26T20:43:23.996Z,72.80
2019-06-26T20:45:54.034Z,72.90
2019-06-26T20:48:24.032Z,72.70
2019-06-26T20:50:53.999Z,72.70
2019-06-26T20:53:27.663Z,73.10
2019-06-26T20:55:55.619Z,72.70
2019-06-26T20:58:25.536Z,72.60
2019-06-26T21:00:55.589Z,72.60
2019-06-26T21:03:25.597Z,73.50
2019-06-26T21:05:55.602Z,72.60
2019-06-26T21:08:29.198Z,72.60
2019-06-26T21:10:57.315Z,72.50
2019-06-26T21:13:27.428Z,72.70
2019-06-26T21:15:57.573Z,72.50
2019-06-26T21:18:27.509Z,72.70
2019-06-26T21:20:57.522Z,73.00
2019-06-26T21:23:27.507Z,72.70
2019-06-26T21:25:57.398Z,72.30
2019-06-26T21:28:27.556Z,72.10
2019-06-26T21:30:57.490Z,72.00
2019-06-26T21:33:27.506Z,72.00
2019-06-26T21:35:57.483Z,72.10
2019-06-26T21:38:27.474Z,72.00
2019-06-26T21:40:57.435Z,72.00
2019-06-26T21:43:27.434Z,72.10
2019-06-26T21:45:57.494Z,72.00
2019-06-26T21:48:27.357Z,71.90
2019-06-26T21:50:57.297Z,71.80
2019-06-26T21:53:27.247Z,71.90
2019-06-26T21:56:16.150Z,72.00
2019-06-26T21:59:03.867Z,71.90
2019-06-26T22:01:51.489Z,71.80
2019-06-26T22:04:39.558Z,71.90
2019-06-26T22:07:29.180Z,71.80
2019-06-26T22:10:09.370Z,72.00
2019-06-26T22:12:40.911Z,71.90
2019-06-26T22:15:10.875Z,71.80
2019-06-26T22:17:40.887Z,71.80
2019-06-26T22:20:12.775Z,71.80
2019-06-26T22:22:43.854Z,71.80
2019-06-26T22:25:13.760Z,71.70
2019-06-26T22:27:43.749Z,71.70
2019-06-26T22:30:13.734Z,71.60
2019-06-26T22:32:43.663Z,71.50
2019-06-26T22:35:13.633Z,71.50
2019-06-26T22:37:43.569Z,71.60
2019-06-26T22:40:13.502Z,71.40
2019-06-26T22:42:43.401Z,71.40
2019-06-26T22:45:13.762Z,71.40
2019-06-26T22:47:43.642Z,71.30
2019-06-26T22:50:14.586Z,71.30
2019-06-26T22:52:44.605Z,71.30
2019-06-26T22:55:14.451Z,71.30
2019-06-26T22:57:44.451Z,71.20
2019-06-26T23:00:15.514Z,71.30
2019-06-26T23:02:45.663Z,71.20
2019-06-26T23:05:15.530Z,71.20
2019-06-26T23:07:45.586Z,71.20
2019-06-26T23:10:15.537Z,71.20
2019-06-26T23:12:45.730Z,71.20
2019-06-26T23:15:15.849Z,71.10
2019-06-26T23:17:45.750Z,71.10
2019-06-26T23:20:15.635Z,71.00
2019-06-26T23:22:45.521Z,71.00
2019-06-26T23:25:15.461Z,71.10
2019-06-26T23:27:45.311Z,71.10
2019-06-26T23:30:17.589Z,71.00
2019-06-26T23:32:47.547Z,70.90
2019-06-26T23:35:17.339Z,70.90
2019-06-26T23:37:47.308Z,71.00
2019-06-26T23:40:17.216Z,70.90
2019-06-26T23:42:47.097Z,71.80
2019-06-26T23:45:17.405Z,71.00
2019-06-26T23:47:47.347Z,71.00
2019-06-26T23:50:18.171Z,70.90
2019-06-26T23:52:48.135Z,70.90
2019-06-26T23:55:18.071Z,70.90
2019-06-26T23:57:58.568Z,70.80
